Time;durP1;ratioP1;P1;durP2;ratioP2;P2;SDS_P1;SDS_P2;PMS_P1;PMS_P2;Temp;Humidity;BMP_temperature;BMP_pressure;BME280_temperature;BME280_humidity;BME280_pressure;Samples;Min_cycle;Max_cycle;Signal;HPM_P1;HPM_P2
2022/06/02 00:01:25;;;;;;;5.53;4.35;;;11.20;99.90;;;;;;5014134;28;20050;-72
2022/06/02 00:04:26;;;;;;;8.13;4.88;;;11.20;99.90;;;;;;5014663;28;20511;-72
2022/06/02 00:07:30;;;;;;;7.47;5.43;;;11.20;99.90;;;;;;4966619;28;20085;-71
2022/06/02 00:10:07;;;;;;;6.35;4.85;;;11.20;99.90;;;;;;4980751;28;20112;-72
2022/06/02 00:12:47;;;;;;;6.43;4.55;;;11.10;99.90;;;;;;4997086;28;20394;-72
2022/06/02 00:15:37;;;;;;;4.82;4.10;;;11.10;99.90;;;;;;5013873;28;20050;-72
2022/06/02 00:18:16;;;;;;;5.50;4.00;;;11.00;99.90;;;;;;5013993;28;20108;-72
2022/06/02 00:21:22;;;;;;;4.93;3.88;;;11.00;99.90;;;;;;4996581;28;20089;-72
2022/06/02 00:24:25;;;;;;;7.72;4.22;;;11.00;99.90;;;;;;4971576;28;20391;-72
2022/06/02 00:27:23;;;;;;;7.60;5.22;;;11.00;99.90;;;;;;5013882;28;20054;-72
2022/06/02 00:29:58;;;;;;;7.30;5.30;;;11.00;99.90;;;;;;4986976;28;20112;-72
2022/06/02 00:32:46;;;;;;;8.35;5.70;;;10.90;99.90;;;;;;4996546;28;20383;-72
2022/06/02 00:35:18;;;;;;;7.75;5.85;;;10.90;99.90;;;;;;4996743;28;20049;-72
2022/06/02 00:37:57;;;;;;;8.05;5.95;;;10.90;99.90;;;;;;4999339;28;20120;-72
2022/06/02 00:40:26;;;;;;;9.13;6.30;;;10.90;99.90;;;;;;5017926;28;20046;-72
2022/06/02 00:43:16;;;;;;;9.75;6.63;;;10.80;99.90;;;;;;5000374;28;20059;-72
2022/06/02 00:45:43;;;;;;;8.55;6.38;;;10.90;99.90;;;;;;5000671;28;20053;-72
2022/06/02 00:48:37;;;;;;;10.80;6.47;;;10.80;99.90;;;;;;5000337;28;20046;-72
2022/06/02 00:51:14;;;;;;;7.80;5.90;;;10.80;99.90;;;;;;5000421;28;20089;-72
2022/06/02 00:57:35;;;;;;;8.10;6.03;;;10.70;99.90;;;;;;5000039;28;20054;-72
2022/06/02 01:00:12;;;;;;;11.02;5.85;;;10.70;99.90;;;;;;4984606;28;20054;-72
2022/06/02 01:03:01;;;;;;;7.07;5.32;;;10.70;99.90;;;;;;5000124;28;20049;-72
2022/06/02 01:05:58;;;;;;;8.35;6.28;;;10.70;99.90;;;;;;5017411;28;20150;-72
2022/06/02 01:08:30;;;;;;;9.60;6.13;;;10.70;99.90;;;;;;4976841;28;20109;-72
2022/06/02 01:11:04;;;;;;;8.88;5.85;;;10.60;99.90;;;;;;4999893;28;20046;-72
2022/06/02 01:13:49;;;;;;;7.82;6.25;;;10.60;99.90;;;;;;5000189;28;20364;-73
2022/06/02 01:16:28;;;;;;;10.10;7.13;;;10.60;99.90;;;;;;5016949;28;20046;-72
2022/06/02 01:19:19;;;;;;;9.23;6.63;;;10.60;99.90;;;;;;5017171;28;20379;-72
2022/06/02 01:22:19;;;;;;;9.18;6.25;;;10.60;99.90;;;;;;4999632;28;20061;-72
2022/06/02 01:24:54;;;;;;;7.93;6.10;;;10.50;99.90;;;;;;5016716;28;20046;-72
2022/06/02 01:27:29;;;;;;;9.43;6.68;;;10.50;99.90;;;;;;5017359;28;20134;-72
2022/06/02 01:30:19;;;;;;;9.20;6.40;;;10.50;99.90;;;;;;4999684;28;20100;-72
2022/06/02 01:32:51;;;;;;;9.60;6.70;;;10.50;99.90;;;;;;4999486;28;20137;-72
2022/06/02 01:35:28;;;;;;;10.90;6.75;;;10.50;99.90;;;;;;5016681;28;20065;-72
2022/06/02 01:38:15;;;;;;;10.32;7.05;;;10.50;99.90;;;;;;4999300;28;20477;-72
2022/06/02 01:40:49;;;;;;;9.88;7.07;;;10.50;99.90;;;;;;4983266;28;20112;-72
2022/06/02 01:43:26;;;;;;;11.23;7.35;;;10.50;99.90;;;;;;5016647;28;20054;-72
2022/06/02 01:46:24;;;;;;;10.38;7.13;;;10.40;99.90;;;;;;4999459;28;20444;-72
2022/06/02 01:49:11;;;;;;;9.70;7.10;;;10.40;99.90;;;;;;4997921;28;20096;-73
2022/06/02 01:51:40;;;;;;;10.63;6.85;;;10.40;99.90;;;;;;5016492;28;20046;-72
2022/06/02 01:54:11;;;;;;;8.48;6.20;;;10.40;99.90;;;;;;5016398;28;20398;-72
2022/06/02 01:57:22;;;;;;;12.43;7.20;;;10.40;99.90;;;;;;4999318;28;20049;-72
2022/06/02 02:00:11;;;;;;;9.23;6.68;;;10.40;99.90;;;;;;4988838;28;20061;-72
2022/06/02 02:02:55;;;;;;;8.55;6.82;;;10.40;99.90;;;;;;4999361;28;20406;-72
2022/06/02 02:05:29;;;;;;;8.82;6.50;;;10.30;99.90;;;;;;4998746;28;20058;-72
2022/06/02 02:08:22;;;;;;;8.90;7.05;;;10.30;99.90;;;;;;4999008;28;20140;-72
2022/06/02 02:10:57;;;;;;;10.75;7.20;;;10.30;99.90;;;;;;5016068;28;20554;-72
2022/06/02 02:13:55;;;;;;;10.63;7.15;;;10.20;99.90;;;;;;4998443;28;20509;-72
2022/06/02 02:16:47;;;;;;;8.30;6.07;;;10.30;99.90;;;;;;4982516;28;20491;-72
2022/06/02 02:19:28;;;;;;;10.45;6.63;;;10.30;99.90;;;;;;5016149;28;20045;-72
2022/06/02 02:21:59;;;;;;;9.43;7.00;;;10.30;99.90;;;;;;4998286;28;20050;-72
2022/06/02 02:24:49;;;;;;;10.45;7.15;;;10.20;99.90;;;;;;4998418;28;20049;-72
2022/06/02 02:28:02;;;;;;;10.05;7.15;;;10.30;99.90;;;;;;4998515;28;20482;-72
2022/06/02 02:30:28;;;;;;;9.10;7.15;;;10.30;99.90;;;;;;4998297;28;20441;-72
2022/06/02 02:33:24;;;;;;;10.70;7.25;;;10.30;99.90;;;;;;5015691;28;20052;-72
2022/06/02 02:36:11;;;;;;;10.85;7.35;;;10.30;99.90;;;;;;5015791;28;20100;-72
2022/06/02 02:38:48;;;;;;;11.50;7.35;;;10.20;99.90;;;;;;4998600;28;20152;-72
2022/06/02 02:41:28;;;;;;;10.90;7.53;;;10.20;99.90;;;;;;4998151;28;20049;-72
2022/06/02 02:44:06;;;;;;;10.40;7.05;;;10.20;99.90;;;;;;4998207;28;20116;-72
2022/06/02 02:46:56;;;;;;;12.75;7.82;;;10.20;99.90;;;;;;4998172;28;20104;-72
2022/06/02 02:49:35;;;;;;;13.00;8.13;;;10.20;99.90;;;;;;4998381;28;20128;-72
2022/06/02 02:52:38;;;;;;;9.20;7.03;;;10.20;99.90;;;;;;5015431;28;20128;-71
2022/06/02 02:55:15;;;;;;;10.85;7.40;;;10.20;99.90;;;;;;4974576;28;20093;-72
2022/06/02 02:58:10;;;;;;;10.23;6.93;;;10.10;99.90;;;;;;5014870;28;20482;-72
2022/06/02 03:00:45;;;;;;;15.77;8.75;;;10.10;99.90;;;;;;4997773;28;20049;-72
2022/06/02 03:03:24;;;;;;;12.07;7.03;;;10.10;99.90;;;;;;4997944;28;20388;-72
2022/06/02 03:06:09;;;;;;;13.73;7.80;;;10.10;99.90;;;;;;5015211;28;20050;-72
2022/06/02 03:08:59;;;;;;;11.70;7.32;;;10.10;99.90;;;;;;4997835;28;20057;-72
2022/06/02 03:11:49;;;;;;;10.73;8.15;;;10.00;99.90;;;;;;5014902;28;20053;-72
2022/06/02 03:14:37;;;;;;;12.05;8.18;;;10.00;99.90;;;;;;4997673;28;20493;-72
2022/06/02 03:17:17;;;;;;;10.65;7.65;;;10.00;99.90;;;;;;5014843;28;20088;-72
2022/06/02 03:20:02;;;;;;;12.02;8.82;;;9.90;99.90;;;;;;4997651;28;20132;-72
2022/06/02 03:22:51;;;;;;;11.07;8.00;;;9.90;99.90;;;;;;4997659;28;20450;-72
2022/06/02 03:25:38;;;;;;;12.30;8.38;;;9.90;99.90;;;;;;4996876;28;20129;-72
2022/06/02 03:28:15;;;;;;;14.07;8.38;;;9.90;99.90;;;;;;4997103;28;20056;-72
2022/06/02 03:31:07;;;;;;;14.35;8.55;;;9.90;99.90;;;;;;4997009;28;20057;-72
2022/06/02 03:34:01;;;;;;;11.57;9.02;;;9.90;99.90;;;;;;4997295;28;20155;-72
2022/06/02 03:36:32;;;;;;;11.60;8.25;;;9.90;99.90;;;;;;5014152;28;20706;-72
2022/06/02 03:39:13;;;;;;;12.15;8.38;;;9.90;99.90;;;;;;4996807;28;20046;-72
2022/06/02 03:42:06;;;;;;;11.18;8.20;;;9.90;99.90;;;;;;4996833;28;20045;-72
2022/06/02 03:44:32;;;;;;;11.43;7.93;;;9.90;99.90;;;;;;5014946;28;20049;-72
2022/06/02 03:47:35;;;;;;;13.20;8.85;;;9.90;99.90;;;;;;4997031;28;20108;-72
2022/06/02 03:50:32;;;;;;;10.95;8.73;;;10.00;99.90;;;;;;5014487;28;20050;-71
2022/06/02 03:53:13;;;;;;;11.68;8.85;;;10.10;99.90;;;;;;4980752;28;20545;-72
2022/06/02 03:56:11;;;;;;;12.48;8.45;;;10.00;99.90;;;;;;5013869;28;20049;-72
2022/06/02 03:58:50;;;;;;;13.60;9.02;;;10.00;99.90;;;;;;4996029;28;20155;-71
2022/06/02 04:01:26;;;;;;;12.57;9.00;;;10.00;99.90;;;;;;4997012;28;20058;-72
2022/06/02 04:04:03;;;;;;;11.60;9.13;;;10.10;99.90;;;;;;5013878;28;20495;-72
2022/06/02 04:06:56;;;;;;;12.40;8.95;;;10.10;99.90;;;;;;4996903;28;20057;-72
2022/06/02 04:09:35;;;;;;;12.35;8.60;;;10.10;99.90;;;;;;5014151;28;20053;-72
2022/06/02 04:15:41;;;;;;;11.70;8.23;;;10.20;99.90;;;;;;4996739;28;20054;-72
2022/06/02 04:18:36;;;;;;;12.30;8.60;;;10.20;99.90;;;;;;4996485;28;20124;-72
2022/06/02 04:21:29;;;;;;;11.98;8.40;;;10.30;99.90;;;;;;5013085;28;20042;-72
2022/06/02 04:24:12;;;;;;;12.05;8.23;;;10.40;99.90;;;;;;5013410;28;20049;-72
2022/06/02 04:27:02;;;;;;;11.85;8.48;;;10.40;99.90;;;;;;4980195;28;20121;-72
2022/06/02 04:30:06;;;;;;;12.38;9.25;;;10.40;99.90;;;;;;4996306;28;20076;-72
2022/06/02 04:33:05;;;;;;;11.10;8.63;;;10.50;99.90;;;;;;4996240;28;20062;-72
2022/06/02 04:36:03;;;;;;;11.50;8.98;;;10.60;99.90;;;;;;5013528;28;20104;-72
2022/06/02 04:38:44;;;;;;;10.93;8.20;;;10.70;99.90;;;;;;5013509;28;20038;-72
2022/06/02 04:41:47;;;;;;;10.27;8.02;;;10.80;99.90;;;;;;4996225;28;20046;-72
2022/06/02 04:44:33;;;;;;;11.63;8.75;;;10.90;99.90;;;;;;5013269;28;20502;-72
2022/06/02 04:47:32;;;;;;;11.93;8.27;;;11.00;99.90;;;;;;5013395;28;20041;-72
2022/06/02 04:50:08;;;;;;;10.82;8.38;;;11.20;99.90;;;;;;4995856;28;20556;-72
2022/06/02 04:52:56;;;;;;;11.82;7.72;;;11.20;99.90;;;;;;4996084;28;20050;-72
2022/06/02 04:56:03;;;;;;;11.25;8.13;;;11.40;99.90;;;;;;5013304;28;20605;-72
2022/06/02 04:58:31;;;;;;;10.30;7.32;;;11.50;99.90;;;;;;4995884;28;20053;-72
2022/06/02 05:01:43;;;;;;;18.65;11.18;;;11.70;99.90;;;;;;5013338;28;20138;-72
2022/06/02 05:04:34;;;;;;;12.43;9.57;;;11.90;99.90;;;;;;4969135;28;20062;-72
2022/06/02 05:07:37;;;;;;;15.15;10.55;;;11.90;99.90;;;;;;5013394;28;20038;-72
2022/06/02 05:10:07;;;;;;;21.15;10.70;;;12.10;99.90;;;;;;5013220;28;20159;-72
2022/06/02 05:12:35;;;;;;;13.75;9.48;;;12.20;99.90;;;;;;5013211;28;20085;-73
2022/06/02 05:15:28;;;;;;;15.90;9.82;;;12.20;99.90;;;;;;4995871;28;20483;-73
2022/06/02 05:18:08;;;;;;;15.90;11.15;;;12.40;99.90;;;;;;5013190;28;20486;-72
2022/06/02 05:20:52;;;;;;;14.38;9.10;;;12.50;99.90;;;;;;4995404;28;20057;-73
2022/06/02 05:23:49;;;;;;;10.73;8.10;;;12.70;99.90;;;;;;4996377;28;20050;-72
2022/06/02 05:26:22;;;;;;;9.15;7.38;;;12.90;99.90;;;;;;4999502;28;20050;-72
2022/06/02 05:29:03;;;;;;;11.63;7.30;;;12.90;99.90;;;;;;4999445;28;20483;-72
2022/06/02 05:32:06;;;;;;;10.45;7.05;;;12.80;99.90;;;;;;4999690;28;20406;-72
2022/06/02 05:35:00;;;;;;;8.68;6.65;;;12.60;99.90;;;;;;4999486;28;20046;-72
2022/06/02 05:37:36;;;;;;;9.65;6.38;;;12.70;99.90;;;;;;4998988;28;20448;-72
2022/06/02 05:40:05;;;;;;;8.13;6.10;;;12.80;99.90;;;;;;5016539;28;20141;-72
2022/06/02 05:42:45;;;;;;;7.35;5.10;;;12.90;99.90;;;;;;4982864;28;20111;-72
2022/06/02 05:45:41;;;;;;;6.28;4.65;;;13.00;99.90;;;;;;4999294;28;20085;-73
2022/06/02 05:48:23;;;;;;;8.63;5.18;;;13.10;99.90;;;;;;4985672;28;20089;-72
2022/06/02 05:51:20;;;;;;;6.97;4.18;;;13.20;99.90;;;;;;4999042;28;20065;-72
2022/06/02 05:53:58;;;;;;;6.53;4.38;;;13.40;99.90;;;;;;5014882;28;20132;-72
2022/06/02 05:56:42;;;;;;;5.68;3.97;;;13.50;99.90;;;;;;4999160;28;20617;-72
2022/06/02 05:59:37;;;;;;;8.20;3.78;;;13.40;99.90;;;;;;5015878;28;20151;-72
2022/06/02 06:02:27;;;;;;;6.95;4.50;;;13.50;99.90;;;;;;5016264;28;20052;-72
2022/06/02 06:05:31;;;;;;;7.88;3.90;;;13.50;99.90;;;;;;4998559;28;20136;-72
2022/06/02 06:08:33;;;;;;;8.40;3.10;;;13.50;99.90;;;;;;4996144;28;20128;-72
2022/06/02 06:11:30;;;;;;;5.03;2.90;;;13.50;99.90;;;;;;5016008;28;20137;-72
2022/06/02 06:14:03;;;;;;;7.57;3.08;;;13.80;99.90;;;;;;4998689;28;20054;-72
2022/06/02 06:16:54;;;;;;;5.45;2.75;;;13.80;99.90;;;;;;4998502;28;20081;-73
2022/06/02 06:19:20;;;;;;;3.92;2.13;;;14.00;99.90;;;;;;4998213;28;20053;-72
2022/06/02 06:21:56;;;;;;;4.60;2.22;;;14.10;99.90;;;;;;4998504;28;20054;-72
2022/06/02 06:24:40;;;;;;;8.13;2.50;;;14.10;99.90;;;;;;5015411;28;20046;-72
2022/06/02 06:27:11;;;;;;;4.63;2.05;;;14.30;99.90;;;;;;5015673;28;20536;-73
2022/06/02 06:30:09;;;;;;;6.25;2.35;;;14.30;99.90;;;;;;4998285;28;20156;-72
2022/06/02 06:32:40;;;;;;;4.75;2.30;;;14.40;99.90;;;;;;4998132;28;20049;-72
2022/06/02 06:35:27;;;;;;;5.93;2.10;;;14.40;99.90;;;;;;5014984;28;20048;-73
2022/06/02 06:38:06;;;;;;;3.47;2.25;;;14.20;99.90;;;;;;4981756;28;20058;-77
2022/06/02 06:41:10;;;;;;;3.35;2.08;;;14.10;99.90;;;;;;4998041;28;20486;-71
2022/06/02 06:43:41;;;;;;;4.10;2.20;;;14.20;99.90;;;;;;4958441;28;20065;-72
2022/06/02 06:46:13;;;;;;;5.28;2.13;;;14.20;99.90;;;;;;4997933;28;20133;-72
2022/06/02 06:48:52;;;;;;;4.80;1.90;;;14.40;99.90;;;;;;5015349;28;20486;-72
2022/06/02 06:51:48;;;;;;;6.68;1.80;;;14.60;99.90;;;;;;5015322;28;20104;-71
2022/06/02 06:54:54;;;;;;;6.97;2.15;;;14.50;99.90;;;;;;4997497;28;20092;-72
2022/06/02 06:57:46;;;;;;;4.28;1.38;;;14.60;99.90;;;;;;4997499;28;20521;-72
2022/06/02 07:00:28;;;;;;;3.67;1.70;;;14.80;99.90;;;;;;5003870;28;20054;-71
2022/06/02 07:03:12;;;;;;;3.90;1.30;;;14.90;99.90;;;;;;4981629;28;20076;-71
2022/06/02 07:05:53;;;;;;;2.40;1.30;;;14.90;99.90;;;;;;5014968;28;20049;-70
2022/06/02 07:08:28;;;;;;;7.05;1.42;;;14.60;99.90;;;;;;4997593;28;20048;-71
2022/06/02 07:11:01;;;;;;;3.17;1.38;;;14.60;99.90;;;;;;4997510;28;20104;-71
2022/06/02 07:13:46;;;;;;;4.47;1.58;;;14.80;99.90;;;;;;5014820;28;20494;-71
2022/06/02 07:16:17;;;;;;;5.70;1.70;;;14.80;99.90;;;;;;5014977;28;20399;-72
2022/06/02 07:18:50;;;;;;;4.15;1.30;;;14.90;99.90;;;;;;5014882;28;20046;-73
2022/06/02 07:21:33;;;;;;;5.03;1.40;;;15.00;99.90;;;;;;5015250;28;20060;-76
2022/06/02 07:24:29;;;;;;;4.50;1.50;;;15.10;99.90;;;;;;5001471;28;20046;-74
2022/06/02 07:27:07;;;;;;;6.60;1.33;;;15.10;99.90;;;;;;4997410;28;20108;-72
2022/06/02 07:30:10;;;;;;;3.72;1.60;;;15.10;99.90;;;;;;5014581;28;20120;-72
2022/06/02 07:32:45;;;;;;;7.20;1.83;;;15.10;99.90;;;;;;5014378;28;20188;-71
2022/06/02 07:35:39;;;;;;;4.45;1.60;;;14.90;99.90;;;;;;4996392;28;20049;-72
2022/06/02 07:38:24;;;;;;;2.95;1.60;;;14.80;99.90;;;;;;5014394;28;20116;-72
2022/06/02 07:41:15;;;;;;;3.08;1.48;;;14.80;99.90;;;;;;5014322;28;20049;-71
2022/06/02 07:44:13;;;;;;;6.20;1.90;;;14.90;99.90;;;;;;5014223;28;20451;-72
2022/06/02 07:46:50;;;;;;;5.25;2.00;;;15.30;99.90;;;;;;5013466;28;20080;-72
2022/06/02 07:49:28;;;;;;;4.95;1.90;;;15.30;99.90;;;;;;4996937;28;20141;-72
2022/06/02 07:51:56;;;;;;;3.22;1.42;;;15.40;99.90;;;;;;5014036;28;20042;-72
2022/06/02 07:54:46;;;;;;;3.83;1.70;;;15.40;99.90;;;;;;4996307;28;20046;-73
2022/06/02 07:57:24;;;;;;;5.15;1.77;;;15.40;99.90;;;;;;4960841;28;20064;-73
2022/06/02 08:00:05;;;;;;;5.30;1.50;;;15.50;99.90;;;;;;4996399;28;20076;-72
2022/06/02 08:02:56;;;;;;;2.78;1.27;;;15.30;99.90;;;;;;5013969;28;20052;-71
2022/06/02 08:05:31;;;;;;;3.95;1.42;;;15.40;99.90;;;;;;4996610;28;20135;-73
2022/06/02 08:08:29;;;;;;;5.47;1.48;;;15.70;99.90;;;;;;5013867;28;20045;-74
2022/06/02 08:10:56;;;;;;;5.22;1.45;;;15.90;99.90;;;;;;4996502;28;20096;-74
2022/06/02 08:13:43;;;;;;;4.53;1.60;;;16.10;99.90;;;;;;5013862;28;20058;-73
2022/06/02 08:16:15;;;;;;;2.42;1.55;;;15.80;99.90;;;;;;5013700;28;20099;-73
2022/06/02 08:18:40;;;;;;;2.50;1.20;;;15.90;99.90;;;;;;5013777;28;20137;-73
2022/06/02 08:21:15;;;;;;;4.32;1.63;;;15.90;99.90;;;;;;4996398;28;20119;-74
2022/06/02 08:24:00;;;;;;;5.10;1.83;;;15.80;99.90;;;;;;4996456;28;20057;-73
2022/06/02 08:27:14;;;;;;;4.40;1.50;;;15.80;99.90;;;;;;5013633;28;20052;-73
2022/06/02 08:29:59;;;;;;;3.60;1.33;;;16.00;99.90;;;;;;4966671;28;20450;-72
2022/06/02 08:32:53;;;;;;;5.30;1.88;;;16.40;99.90;;;;;;4996231;28;20104;-72
2022/06/02 08:35:33;;;;;;;3.28;1.30;;;16.70;99.90;;;;;;5013631;28;20050;-74
2022/06/02 08:38:23;;;;;;;2.90;1.00;;;16.60;99.90;;;;;;5013540;28;20128;-73
2022/06/02 08:41:28;;;;;;;3.22;1.58;;;16.20;99.90;;;;;;4996186;28;20089;-71
2022/06/02 08:44:03;;;;;;;5.63;1.50;;;16.10;99.90;;;;;;5013404;28;20084;-84
2022/06/02 08:46:50;;;;;;;2.63;1.27;;;15.90;99.90;;;;;;5013033;28;20042;-68
2022/06/02 08:49:40;;;;;;;4.18;1.30;;;16.00;99.90;;;;;;5013532;28;20103;-88
2022/06/02 08:52:12;;;;;;;2.20;1.30;;;16.00;99.90;;;;;;4980575;28;20056;-82
2022/06/02 08:55:05;;;;;;;5.18;1.50;;;15.60;99.90;;;;;;4996010;28;20124;-81
2022/06/02 08:57:37;;;;;;;3.13;1.15;;;15.50;99.90;;;;;;4996812;28;20104;-83
2022/06/02 09:00:21;;;;;;;2.85;1.38;;;15.60;99.90;;;;;;4999797;28;20053;-76
2022/06/02 09:03:15;;;;;;;4.55;1.30;;;15.70;99.90;;;;;;4983737;28;20501;-76
2022/06/02 09:05:44;;;;;;;4.57;1.40;;;15.90;99.90;;;;;;4999994;28;20049;-80
2022/06/02 09:08:24;;;;;;;5.22;1.63;;;15.90;99.90;;;;;;5000266;28;20053;-77
2022/06/02 09:10:56;;;;;;;5.53;1.50;;;16.00;99.90;;;;;;4999896;28;20054;-82
2022/06/02 09:13:34;;;;;;;5.68;1.52;;;15.90;99.90;;;;;;4984005;28;20057;-88
2022/06/02 09:16:36;;;;;;;3.70;1.35;;;15.90;99.90;;;;;;4999737;28;20053;-82
2022/06/02 09:19:40;;;;;;;9.60;1.85;;;15.80;99.90;;;;;;4999615;28;20042;-81
2022/06/02 09:22:14;;;;;;;2.63;0.98;;;15.80;99.90;;;;;;4983274;28;20061;-80
2022/06/02 09:25:11;;;;;;;4.72;1.20;;;15.90;99.90;;;;;;4999202;28;20096;-80
2022/06/02 09:27:55;;;;;;;3.70;1.33;;;16.20;99.90;;;;;;4999635;28;20049;-80
2022/06/02 09:30:27;;;;;;;3.15;1.20;;;16.20;99.90;;;;;;4999612;28;20058;-80
2022/06/02 09:33:43;;;;;;;4.10;1.33;;;16.30;99.90;;;;;;4999281;28;20603;-80
2022/06/02 09:36:36;;;;;;;1.45;0.98;;;16.10;99.90;;;;;;4999229;28;20044;-80
2022/06/02 09:39:20;;;;;;;2.55;1.17;;;15.50;99.90;;;;;;4998971;28;20049;-80
2022/06/02 09:42:04;;;;;;;3.88;1.13;;;15.50;99.90;;;;;;4999315;28;20056;-79
2022/06/02 09:44:51;;;;;;;4.70;1.20;;;15.80;99.90;;;;;;4999079;28;20132;-80
2022/06/02 09:47:41;;;;;;;3.47;1.00;;;16.00;99.90;;;;;;4999152;28;20096;-80
2022/06/02 09:50:33;;;;;;;2.45;1.13;;;16.10;99.90;;;;;;4999217;28;20137;-80
2022/06/02 09:53:15;;;;;;;2.42;0.95;;;15.90;99.90;;;;;;4999086;28;20054;-81
2022/06/02 09:55:43;;;;;;;2.67;1.10;;;15.90;99.90;;;;;;4998401;28;20441;-81
2022/06/02 09:58:15;;;;;;;2.83;0.95;;;16.10;99.90;;;;;;4998729;28;20490;-80
2022/06/02 10:00:44;;;;;;;1.83;1.10;;;16.50;99.90;;;;;;4982693;28;20050;-81
2022/06/02 10:03:28;;;;;;;3.15;1.20;;;16.40;99.90;;;;;;4998834;28;20042;-80
2022/06/02 10:06:47;;;;;;;4.05;1.30;;;16.20;99.90;;;;;;4998760;28;20042;-80
2022/06/02 10:09:21;;;;;;;;;;;16.40;99.90;;;;;;4955679;28;20061;-79
2022/06/02 10:15:43;;;;;;;2.75;1.30;;;16.70;99.90;;;;;;4946352;28;20124;-80
2022/06/02 10:18:27;;;;;;;7.18;1.50;;;17.10;99.90;;;;;;4982409;28;20050;-80
2022/06/02 10:21:12;;;;;;;4.35;1.42;;;17.10;99.90;;;;;;4998622;28;20050;-81
2022/06/02 10:24:10;;;;;;;2.42;1.25;;;17.20;99.90;;;;;;4998571;28;20546;-80
2022/06/02 10:27:06;;;;;;;5.07;1.50;;;17.40;99.90;;;;;;4998432;28;20100;-80
2022/06/02 10:29:56;;;;;;;3.03;1.40;;;17.30;99.90;;;;;;4982261;28;20053;-85
2022/06/02 10:32:28;;;;;;;7.93;1.10;;;17.60;99.90;;;;;;4998439;28;20136;-82
2022/06/02 10:35:18;;;;;;;2.55;1.17;;;17.50;99.90;;;;;;4998262;28;20050;-85
2022/06/02 10:37:54;;;;;;;2.80;1.10;;;17.00;99.90;;;;;;4981741;28;20466;-89
2022/06/02 10:40:47;;;;;;;2.30;1.38;;;17.10;99.90;;;;;;4998658;28;20088;-90
2022/06/02 10:43:32;;;;;;;2.30;1.27;;;17.50;99.90;;;;;;4982585;28;20050;-89
2022/06/02 10:46:07;;;;;;;3.53;1.20;;;17.70;99.90;;;;;;4998504;28;20054;-87
2022/06/02 10:49:10;;;;;;;3.17;1.40;;;17.90;99.90;;;;;;4982036;28;20049;-87
2022/06/02 10:52:03;;;;;;;1.33;1.10;;;17.90;99.90;;;;;;4981954;28;20050;-88
2022/06/02 10:54:57;;;;;;;3.80;1.23;;;18.00;99.90;;;;;;4997596;28;20049;-85
2022/06/02 10:57:45;;;;;;;4.85;1.40;;;17.90;99.90;;;;;;4984410;28;20158;-85
2022/06/02 11:00:10;;;;;;;3.80;1.15;;;17.90;99.90;;;;;;4997082;28;20061;-88
2022/06/02 11:02:55;;;;;;;2.72;1.00;;;17.90;99.90;;;;;;4997918;28;20477;-88
2022/06/02 11:05:45;;;;;;;3.53;1.05;;;18.30;99.90;;;;;;4998741;28;20053;-92
2022/06/02 11:08:25;;;;;;;5.18;1.30;;;18.70;99.90;;;;;;4998510;28;20050;-90
2022/06/02 11:11:12;;;;;;;3.00;1.10;;;18.60;99.90;;;;;;4981785;28;20058;-90
2022/06/02 11:13:52;;;;;;;3.13;1.30;;;18.60;99.90;;;;;;4998117;28;20050;-92
2022/06/02 11:16:48;;;;;;;4.03;1.23;;;18.90;99.90;;;;;;4998424;28;20068;-88
2022/06/02 11:19:31;;;;;;;3.83;1.33;;;18.60;99.90;;;;;;4981968;28;20143;-89
2022/06/02 11:22:07;;;;;;;2.90;1.13;;;18.40;99.90;;;;;;4998374;28;20049;-90
2022/06/02 11:24:51;;;;;;;3.90;1.10;;;18.60;99.90;;;;;;4981643;28;20045;-91
2022/06/02 11:28:01;;;;;;;3.30;1.25;;;18.80;99.90;;;;;;4997927;28;20123;-90
2022/06/02 11:30:55;;;;;;;5.35;1.30;;;19.10;99.90;;;;;;4998032;28;20042;-90
2022/06/02 11:33:49;;;;;;;4.25;1.58;;;19.20;99.90;;;;;;4981870;28;20045;-89
2022/06/02 11:36:39;;;;;;;3.42;1.20;;;19.00;99.90;;;;;;4981458;28;20446;-90
2022/06/02 11:39:32;;;;;;;3.13;1.20;;;19.00;99.90;;;;;;4981790;28;20398;-92
2022/06/02 11:42:06;;;;;;;1.40;1.30;;;19.10;99.90;;;;;;4997626;28;20501;-90
2022/06/02 11:44:59;;;;;;;6.03;1.40;;;19.20;99.90;;;;;;4997898;28;20081;-91
2022/06/02 11:47:37;;;;;;;3.90;1.50;;;18.50;99.90;;;;;;4981584;28;20124;-90
2022/06/02 11:50:24;;;;;;;4.63;1.40;;;18.80;99.90;;;;;;4997854;28;20131;-90
2022/06/02 11:53:28;;;;;;;2.45;1.25;;;19.10;99.90;;;;;;4981476;28;20474;-92
2022/06/02 11:56:07;;;;;;;3.78;1.42;;;19.20;99.90;;;;;;4954565;28;20092;-91
2022/06/02 11:58:51;;;;;;;4.72;1.58;;;18.80;99.90;;;;;;4997429;28;20057;-92
2022/06/02 12:01:32;;;;;;;4.05;1.33;;;19.00;99.90;;;;;;4997217;28;20141;-90
2022/06/02 12:04:25;;;;;;;3.85;1.48;;;19.30;99.90;;;;;;4997804;28;20045;-95
2022/06/02 12:07:30;;;;;;;2.50;1.10;;;19.50;99.90;;;;;;4981845;28;20115;-92
2022/06/02 12:10:38;;;;;;;3.65;1.48;;;19.40;99.90;;;;;;4981368;28;20375;-82
2022/06/02 12:13:22;;;;;;;;;;;19.50;99.90;;;;;;4981498;28;20056;-86
2022/06/02 12:15:57;;;;;;;2.40;1.15;;;19.30;99.90;;;;;;4997065;28;19928;-89
2022/06/02 12:18:49;;;;;;;2.50;1.00;;;18.90;99.90;;;;;;4996738;28;20052;-88
2022/06/02 12:22:03;;;;;;;2.83;1.25;;;18.70;99.90;;;;;;4996796;28;20046;-88
2022/06/02 12:24:32;;;;;;;3.92;1.42;;;19.00;99.90;;;;;;4979571;28;20391;-93
2022/06/02 12:27:35;;;;;;;5.60;1.20;;;19.00;99.90;;;;;;4981224;28;20084;-90
2022/06/02 12:30:07;;;;;;;3.92;1.30;;;19.20;99.90;;;;;;4997147;28;20128;-90
2022/06/02 12:32:45;;;;;;;10.18;1.33;;;19.60;99.90;;;;;;4999226;28;20046;-83
2022/06/02 12:35:20;;;;;;;2.85;1.45;;;19.90;99.90;;;;;;5002999;28;20053;-80
2022/06/02 12:38:00;;;;;;;5.13;1.60;;;20.00;99.90;;;;;;5020089;28;20037;-72
2022/06/02 12:40:36;;;;;;;2.90;1.40;;;20.20;99.90;;;;;;5020231;28;20192;-73
2022/06/02 12:43:26;;;;;;;2.58;1.50;;;21.20;99.90;;;;;;5020250;28;20042;-73
2022/06/02 12:46:17;;;;;;;4.32;1.58;;;21.60;99.60;;;;;;5020111;28;20062;-73
2022/06/02 12:49:00;;;;;;;2.72;1.17;;;21.70;99.60;;;;;;5019911;28;20482;-73
2022/06/02 12:51:34;;;;;;;3.65;1.10;;;21.60;99.50;;;;;;5002728;28;20448;-73
2022/06/02 12:54:21;;;;;;;5.07;1.30;;;21.60;99.50;;;;;;5020266;28;20129;-74
2022/06/02 12:57:11;;;;;;;3.17;1.45;;;22.30;99.30;;;;;;5020123;28;20045;-72
2022/06/02 13:00:18;;;;;;;3.38;1.13;;;22.30;99.20;;;;;;5020025;28;20053;-82
2022/06/02 13:02:56;;;;;;;3.75;1.50;;;21.90;99.10;;;;;;4969799;28;20054;-72
2022/06/02 13:05:24;;;;;;;2.45;1.20;;;22.00;99.50;;;;;;5019989;28;20168;-75
2022/06/02 13:08:31;;;;;;;5.85;1.58;;;22.10;99.60;;;;;;5019852;28;20044;-75
2022/06/02 13:11:11;;;;;;;;;;;21.80;99.10;;;;;;5020396;28;20045;-75
2022/06/02 13:13:49;;;;;;;2.67;1.15;;;21.60;99.20;;;;;;5020210;28;19925;-74
2022/06/02 13:16:53;;;;;;;5.72;1.30;;;21.70;99.30;;;;;;5019736;28;20390;-75
2022/06/02 13:19:37;;;;;;;1.92;1.00;;;21.80;98.70;;;;;;5002309;28;20049;-76
2022/06/02 13:22:35;;;;;;;4.13;1.15;;;21.60;99.40;;;;;;5019744;28;20050;-75
2022/06/02 13:25:40;;;;;;;1.95;1.30;;;21.80;99.20;;;;;;5019496;28;20054;-73
2022/06/02 13:28:36;;;;;;;3.90;1.42;;;21.80;99.30;;;;;;5019795;28;20085;-73
2022/06/02 13:31:21;;;;;;;2.40;1.20;;;22.20;99.30;;;;;;5019792;28;20402;-76
2022/06/02 13:34:05;;;;;;;2.45;1.15;;;22.20;99.00;;;;;;5019849;28;20049;-74
2022/06/02 13:36:43;;;;;;;3.97;1.42;;;22.60;99.00;;;;;;5019717;28;20046;-83
2022/06/02 13:39:41;;;;;;;2.67;0.85;;;23.00;99.20;;;;;;5002509;28;20136;-72
2022/06/02 13:42:32;;;;;;;4.57;1.05;;;23.30;98.90;;;;;;4962682;28;20399;-71
2022/06/02 13:45:28;;;;;;;2.63;0.95;;;23.70;98.60;;;;;;5015919;28;20050;-72
2022/06/02 13:48:32;;;;;;;3.60;1.08;;;23.90;98.70;;;;;;5016508;28;20152;-72
2022/06/02 13:51:10;;;;;;;3.35;1.00;;;23.80;98.70;;;;;;5016354;28;20062;-72
2022/06/02 13:57:38;;;;;;;2.05;1.17;;;24.20;98.50;;;;;;5016255;28;20074;-72
2022/06/02 14:00:30;;;;;;;3.67;1.00;;;24.20;98.50;;;;;;5016571;28;20081;-72
2022/06/02 14:03:04;;;;;;;2.72;0.93;;;24.00;98.30;;;;;;4999035;28;20056;-72
2022/06/02 14:06:05;;;;;;;5.55;1.40;;;23.90;98.10;;;;;;5016120;28;20085;-72
2022/06/02 14:08:52;;;;;;;3.63;1.33;;;23.80;98.10;;;;;;5010155;28;20093;-72
2022/06/02 14:11:50;;;;;;;2.85;1.25;;;23.80;98.20;;;;;;5016432;28;20125;-71
2022/06/02 14:14:21;;;;;;;4.18;1.10;;;23.90;97.90;;;;;;5004881;28;20065;-70
2022/06/02 14:16:47;;;;;;;3.25;1.00;;;23.70;97.50;;;;;;4998343;28;20494;-70
2022/06/02 14:19:37;;;;;;;3.55;1.20;;;23.70;98.00;;;;;;5015875;28;20042;-70
2022/06/02 14:22:26;;;;;;;5.25;1.27;;;23.70;98.00;;;;;;5016221;28;20069;-70
2022/06/02 14:24:54;;;;;;;2.65;1.00;;;24.00;97.80;;;;;;4954890;28;20062;-70
2022/06/02 14:27:35;;;;;;;2.40;1.05;;;24.30;97.60;;;;;;5015787;28;20053;-70
2022/06/02 14:30:14;;;;;;;2.28;1.00;;;24.50;98.00;;;;;;5015760;28;20077;-70
2022/06/02 14:33:12;;;;;;;2.30;0.90;;;24.50;97.90;;;;;;5015721;28;20050;-70
2022/06/02 14:35:56;;;;;;;2.45;0.93;;;23.90;97.90;;;;;;5015645;28;20132;-70